Time,TemperatureF,DewpointF,PressureIn,WindDirection,WindDirectionDegrees,WindSpeedMPH,WindSpeedGustMPH,Humidity,HourlyPrecipIn,Conditions,Clouds,dailyrainin,SoftwareType,DateUTC
2013-01-09 07:01:00,67.3,65.8,30.01,ESE,117,3.0,8.0,95,0.18,,,0.04,Wunderground v.1.15,2013-01-09 17:01:00,
2013-01-09 07:05:00,67.3,65.8,30.01,SE,144,4.0,19.0,95,0.08,,,0.04,Wunderground v.1.15,2013-01-09 17:05:00,
2013-01-09 07:06:00,67.3,66.1,30.01,SSW,195,5.0,19.0,96,0.07,,,0.04,Wunderground v.1.15,2013-01-09 17:06:00,
2013-01-09 07:11:00,67.4,66.2,30.01,ESE,111,5.0,11.0,96,0.04,,,0.04,Wunderground v.1.15,2013-01-09 17:11:00,
2013-01-09 07:17:00,67.4,66.2,30.02,SE,143,4.0,15.0,96,0.00,,,0.04,Wunderground v.1.15,2013-01-09 17:17:00,
2013-01-09 07:23:00,67.4,66.2,30.02,SE,140,3.0,15.0,96,0.00,,,0.04,Wunderground v.1.15,2013-01-09 17:23:00,
2013-01-09 07:28:00,67.4,66.2,30.02,SE,140,3.0,15.0,96,0.00,,,0.04,Wunderground v.1.15,2013-01-09 17:28:00,
2013-01-09 07:33:00,67.3,66.1,30.02,SSE,151,3.0,15.0,96,0.00,,,0.04,Wunderground v.1.15,2013-01-09 17:33:00,
2013-01-09 07:39:00,67.3,66.1,30.02,SE,140,3.0,3.0,96,0.00,,,0.05,Wunderground v.1.15,2013-01-09 17:39:00,
2013-01-09 07:44:00,67.4,66.2,30.02,SE,145,2.0,11.0,96,0.00,,,0.05,Wunderground v.1.15,2013-01-09 17:44:00,
2013-01-09 07:50:00,67.4,66.2,30.02,SE,141,3.0,9.0,96,0.00,,,0.05,Wunderground v.1.15,2013-01-09 17:50:00,
2013-01-09 07:55:00,67.4,66.2,30.02,SE,142,3.0,9.0,96,0.00,,,0.05,Wunderground v.1.15,2013-01-09 17:55:00,
2013-01-09 08:01:00,67.4,66.2,30.02,SE,146,4.0,11.0,96,0.00,,,0.05,Wunderground v.1.15,2013-01-09 18:01:00,
2013-01-09 08:07:00,67.5,66.3,30.02,ESE,122,4.0,11.0,96,0.00,,,0.05,Wunderground v.1.15,2013-01-09 18:07:00,
2013-01-09 08:13:00,67.5,66.3,30.03,SSE,168,4.0,11.0,96,0.00,,,0.05,Wunderground v.1.15,2013-01-09 18:13:00,
2013-01-09 08:18:00,67.6,66.4,30.03,SSE,148,5.0,13.0,96,0.00,,,0.05,Wunderground v.1.15,2013-01-09 18:18:00,
2013-01-09 08:24:00,67.8,66.6,30.03,SE,142,6.0,14.0,96,0.00,,,0.05,Wunderground v.1.15,2013-01-09 18:24:00,
2013-01-09 08:29:00,67.9,66.7,30.03,ESE,121,6.0,14.0,96,0.00,,,0.05,Wunderground v.1.15,2013-01-09 18:29:00,
2013-01-09 08:35:00,68.0,66.5,30.03,SE,144,6.0,14.0,95,0.00,,,0.05,Wunderground v.1.15,2013-01-09 18:35:00,
2013-01-09 08:41:00,68.0,66.5,30.03,SSE,151,6.0,14.0,95,0.00,,,0.06,Wunderground v.1.15,2013-01-09 18:41:00,
2013-01-09 08:42:00,68.0,66.5,30.03,SE,142,5.0,14.0,95,0.00,,,0.06,Wunderground v.1.15,2013-01-09 18:42:00,
2013-01-09 08:44:00,68.1,66.6,30.03,SE,138,6.0,14.0,95,0.00,,,0.06,Wunderground v.1.15,2013-01-09 18:44:00,
2013-01-09 08:45:00,68.1,66.6,30.03,SSE,162,5.0,14.0,95,0.00,,,0.06,Wunderground v.1.15,2013-01-09 18:45:00,
2013-01-09 08:47:00,68.1,66.6,30.03,SSE,161,6.0,14.0,95,0.13,,,0.07,Wunderground v.1.15,2013-01-09 18:47:00,
2013-01-09 08:49:00,68.1,66.6,30.03,SSE,153,6.0,14.0,95,0.24,,,0.08,Wunderground v.1.15,2013-01-09 18:49:00,
2013-01-09 08:51:00,68.2,67.0,30.03,SE,146,7.0,14.0,96,0.33,,,0.09,Wunderground v.1.15,2013-01-09 18:51:00,
2013-01-09 08:53:00,68.3,67.1,30.03,SSE,164,7.0,14.0,96,0.18,,,0.09,Wunderground v.1.15,2013-01-09 18:53:00,
2013-01-09 08:55:00,68.3,67.1,30.03,ESE,103,8.0,14.0,96,0.11,,,0.09,Wunderground v.1.15,2013-01-09 18:55:00,
2013-01-09 09:00:00,68.4,67.2,30.03,South,171,7.0,14.0,96,0.06,,,0.09,Wunderground v.1.15,2013-01-09 19:00:00,
2013-01-09 09:05:00,68.4,67.2,30.03,SSE,150,6.0,17.0,96,0.04,,,0.09,Wunderground v.1.15,2013-01-09 19:05:00,
2013-01-09 09:11:00,68.5,67.0,30.03,SE,135,8.0,17.0,95,0.00,,,0.10,Wunderground v.1.15,2013-01-09 19:11:00,
2013-01-09 09:17:00,68.6,67.1,30.03,South,173,9.0,25.0,95,0.00,,,0.10,Wunderground v.1.15,2013-01-09 19:17:00,
2013-01-09 09:23:00,68.7,67.2,30.03,SSE,167,7.0,25.0,95,0.05,,,0.11,Wunderground v.1.15,2013-01-09 19:23:00,
2013-01-09 09:28:00,68.8,67.3,30.03,SE,139,7.0,25.0,95,0.05,,,0.11,Wunderground v.1.15,2013-01-09 19:28:00,
2013-01-09 09:33:00,68.8,67.3,30.03,SE,135,8.0,25.0,95,0.04,,,0.11,Wunderground v.1.15,2013-01-09 19:33:00,
2013-01-09 09:39:00,68.8,67.3,30.03,SE,146,9.0,25.0,95,0.04,,,0.12,Wunderground v.1.15,2013-01-09 19:39:00,
2013-01-09 09:45:00,69.0,67.5,30.03,SSE,149,8.0,18.0,95,0.04,,,0.12,Wunderground v.1.15,2013-01-09 19:45:00,
2013-01-09 09:51:00,69.0,67.5,30.03,SE,138,7.0,18.0,95,0.00,,,0.12,Wunderground v.1.15,2013-01-09 19:51:00,
2013-01-09 09:57:00,69.0,67.5,30.04,East,90,7.0,18.0,95,0.00,,,0.12,Wunderground v.1.15,2013-01-09 19:57:00,
2013-01-09 10:02:00,69.2,67.7,30.04,ESE,109,5.0,15.0,95,0.00,,,0.13,Wunderground v.1.15,2013-01-09 20:02:00,
2013-01-09 10:08:00,69.7,68.5,30.04,SE,146,4.0,15.0,96,0.00,,,0.13,Wunderground v.1.15,2013-01-09 20:08:00,
2013-01-09 10:14:00,69.8,68.3,30.04,SE,146,8.0,15.0,95,0.00,,,0.13,Wunderground v.1.15,2013-01-09 20:14:00,
2013-01-09 10:20:00,69.9,68.1,30.04,ESE,105,9.0,9.0,94,0.00,,,0.13,Wunderground v.1.15,2013-01-09 20:20:00,
2013-01-09 10:25:00,70.0,68.2,30.04,SE,142,7.0,23.0,94,0.00,,,0.13,Wunderground v.1.15,2013-01-09 20:25:00,
2013-01-09 10:31:00,70.1,68.3,30.04,SE,140,8.0,23.0,94,0.00,,,0.13,Wunderground v.1.15,2013-01-09 20:31:00,
2013-01-09 10:36:00,70.3,68.5,30.04,ESE,122,8.0,23.0,94,0.00,,,0.13,Wunderground v.1.15,2013-01-09 20:36:00,
2013-01-09 10:42:00,70.6,68.5,30.04,SE,134,7.0,19.0,93,0.00,,,0.13,Wunderground v.1.15,2013-01-09 20:42:00,
2013-01-09 10:47:00,70.8,68.7,30.03,SSE,148,8.0,20.0,93,0.00,,,0.13,Wunderground v.1.15,2013-01-09 20:47:00,
2013-01-09 10:53:00,71.1,69.0,30.03,SE,135,7.0,20.0,93,0.00,,,0.13,Wunderground v.1.15,2013-01-09 20:53:00,
2013-01-09 10:59:00,71.4,69.6,30.03,SSE,147,6.0,20.0,94,0.00,,,0.14,Wunderground v.1.15,2013-01-09 20:59:00,
2013-01-09 11:04:00,71.3,69.2,30.03,SE,144,5.0,17.0,93,0.00,,,0.14,Wunderground v.1.15,2013-01-09 21:04:00,
2013-01-09 11:09:00,71.0,68.9,30.02,SE,140,5.0,17.0,93,0.00,,,0.14,Wunderground v.1.15,2013-01-09 21:09:00,
2013-01-09 11:15:00,70.7,68.6,30.02,SE,129,7.0,17.0,93,0.00,,,0.14,Wunderground v.1.15,2013-01-09 21:15:00,
2013-01-09 11:21:00,70.8,69.0,30.02,SE,129,6.0,11.0,94,0.00,,,0.14,Wunderground v.1.15,2013-01-09 21:21:00,
2013-01-09 11:26:00,71.0,69.5,30.01,ESE,118,6.0,17.0,95,0.00,,,0.14,Wunderground v.1.15,2013-01-09 21:26:00,
2013-01-09 11:32:00,71.2,69.4,30.01,SSE,150,5.0,15.0,94,0.00,,,0.14,Wunderground v.1.15,2013-01-09 21:32:00,
2013-01-09 11:38:00,71.4,69.3,30.01,SSE,167,5.0,15.0,93,0.00,,,0.14,Wunderground v.1.15,2013-01-09 21:38:00,
2013-01-09 11:43:00,71.5,69.1,30.01,SE,144,6.0,15.0,92,0.00,,,0.14,Wunderground v.1.15,2013-01-09 21:43:00,
2013-01-09 11:49:00,71.8,69.7,30.01,SE,142,6.0,16.0,93,0.00,,,0.14,Wunderground v.1.15,2013-01-09 21:49:00,
2013-01-09 11:55:00,71.5,69.1,30.00,SSE,148,8.0,16.0,92,0.00,,,0.14,Wunderground v.1.15,2013-01-09 21:55:00,
2013-01-09 12:00:00,71.5,69.4,30.00,SE,142,9.0,9.0,93,0.00,,,0.14,Wunderground v.1.15,2013-01-09 22:00:00,
2013-01-09 12:05:00,71.8,69.7,30.00,SSE,156,5.0,19.0,93,0.00,,,0.14,Wunderground v.1.15,2013-01-09 22:05:00,
2013-01-09 12:11:00,71.9,69.8,30.00,East,82,3.0,19.0,93,0.00,,,0.14,Wunderground v.1.15,2013-01-09 22:11:00,
2013-01-09 12:16:00,71.2,68.4,29.99,ESE,111,5.0,19.0,91,0.00,,,0.15,Wunderground v.1.15,2013-01-09 22:16:00,
2013-01-09 12:22:00,70.6,68.2,29.99,ESE,107,7.0,19.0,92,0.19,,,0.17,Wunderground v.1.15,2013-01-09 22:22:00,
2013-01-09 12:27:00,70.5,68.7,29.98,SE,131,6.0,19.0,94,0.08,,,0.17,Wunderground v.1.15,2013-01-09 22:27:00,
2013-01-09 12:33:00,70.9,69.4,29.98,East,85,5.0,15.0,95,0.04,,,0.17,Wunderground v.1.15,2013-01-09 22:33:00,
2013-01-09 12:39:00,71.0,69.2,29.98,SE,134,6.0,15.0,94,0.00,,,0.17,Wunderground v.1.15,2013-01-09 22:39:00,
2013-01-09 12:44:00,71.2,69.4,29.98,ESE,113,4.0,15.0,94,0.00,,,0.17,Wunderground v.1.15,2013-01-09 22:44:00,
2013-01-09 12:50:00,71.2,69.4,29.98,SE,132,5.0,5.0,94,0.00,,,0.17,Wunderground v.1.15,2013-01-09 22:50:00,
2013-01-09 12:56:00,71.5,69.7,29.98,SE,126,6.0,18.0,94,0.00,,,0.17,Wunderground v.1.15,2013-01-09 22:56:00,
2013-01-09 13:01:00,71.5,69.4,29.98,SSE,153,6.0,14.0,93,0.00,,,0.17,Wunderground v.1.15,2013-01-09 23:01:00,
2013-01-09 13:07:00,71.4,69.0,29.97,SSE,157,6.0,14.0,92,0.00,,,0.17,Wunderground v.1.15,2013-01-09 23:07:00,
2013-01-09 13:13:00,71.6,69.5,29.97,ESE,104,6.0,14.0,93,0.00,,,0.17,Wunderground v.1.15,2013-01-09 23:13:00,
2013-01-09 13:19:00,71.8,69.7,29.97,ENE,68,3.0,18.0,93,0.00,,,0.17,Wunderground v.1.15,2013-01-09 23:19:00,
2013-01-09 13:24:00,71.5,69.4,29.97,East,100,4.0,18.0,93,0.00,,,0.17,Wunderground v.1.15,2013-01-09 23:24:00,
2013-01-09 13:30:00,71.2,68.8,29.97,East,98,4.0,18.0,92,0.00,,,0.17,Wunderground v.1.15,2013-01-09 23:30:00,
2013-01-09 13:35:00,71.1,69.0,29.97,ESE,115,4.0,18.0,93,0.00,,,0.17,Wunderground v.1.15,2013-01-09 23:35:00,
2013-01-09 13:40:00,71.3,69.2,29.97,SE,135,4.0,4.0,93,0.00,,,0.17,Wunderground v.1.15,2013-01-09 23:40:00,
2013-01-09 13:46:00,71.3,68.9,29.96,SSE,147,7.0,12.0,92,0.00,,,0.17,Wunderground v.1.15,2013-01-09 23:46:00,
2013-01-09 13:52:00,70.9,68.1,29.96,SE,128,9.0,25.0,91,0.00,,,0.17,Wunderground v.1.15,2013-01-09 23:52:00,
2013-01-09 13:57:00,70.7,68.3,29.96,SSE,167,9.0,25.0,92,0.00,,,0.17,Wunderground v.1.15,2013-01-09 23:57:00,
2013-01-09 14:03:00,70.6,68.2,29.96,SSE,148,7.0,25.0,92,0.00,,,0.17,Wunderground v.1.15,2013-01-10 00:03:00,
2013-01-09 14:09:00,70.9,68.8,29.95,SE,138,6.0,25.0,93,0.00,,,0.17,Wunderground v.1.15,2013-01-10 00:09:00,
2013-01-09 14:15:00,71.3,68.9,29.96,SE,140,7.0,22.0,92,0.00,,,0.17,Wunderground v.1.15,2013-01-10 00:15:00,
2013-01-09 14:20:00,71.4,68.6,29.95,SSW,207,7.0,18.0,91,0.00,,,0.17,Wunderground v.1.15,2013-01-10 00:20:00,
2013-01-09 14:26:00,71.5,68.4,29.95,ENE,78,8.0,18.0,90,0.00,,,0.17,Wunderground v.1.15,2013-01-10 00:26:00,
2013-01-09 14:31:00,71.5,68.4,29.95,SSE,157,7.0,18.0,90,0.00,,,0.17,Wunderground v.1.15,2013-01-10 00:31:00,
2013-01-09 14:37:00,71.6,68.5,29.95,SSE,150,4.0,18.0,90,0.00,,,0.17,Wunderground v.1.15,2013-01-10 00:37:00,
2013-01-09 14:43:00,71.5,68.1,29.95,SE,145,6.0,18.0,89,0.00,,,0.17,Wunderground v.1.15,2013-01-10 00:43:00,
2013-01-09 14:49:00,71.7,68.6,29.95,SSE,161,8.0,18.0,90,0.00,,,0.17,Wunderground v.1.15,2013-01-10 00:49:00,
2013-01-09 14:54:00,72.0,68.9,29.95,SE,146,7.0,18.0,90,0.00,,,0.17,Wunderground v.1.15,2013-01-10 00:54:00,
2013-01-09 15:00:00,72.2,69.1,29.96,SE,132,4.0,4.0,90,0.00,,,0.17,Wunderground v.1.15,2013-01-10 01:00:00,
2013-01-09 15:05:00,71.9,68.5,29.96,SE,130,4.0,18.0,89,0.00,,,0.17,Wunderground v.1.15,2013-01-10 01:05:00,
2013-01-09 15:10:00,70.7,67.6,29.96,SE,142,7.0,7.0,90,0.29,,,0.20,Wunderground v.1.15,2013-01-10 01:10:00,
2013-01-09 15:16:00,70.1,67.7,29.95,SE,145,7.0,23.0,92,0.08,,,0.20,Wunderground v.1.15,2013-01-10 01:16:00,
2013-01-09 15:22:00,69.9,67.8,29.95,SE,137,5.0,23.0,93,0.04,,,0.20,Wunderground v.1.15,2013-01-10 01:22:00,
2013-01-09 15:27:00,69.9,68.1,29.96,SSE,148,6.0,23.0,94,0.00,,,0.20,Wunderground v.1.15,2013-01-10 01:27:00,
2013-01-09 15:33:00,69.9,68.1,29.96,SSE,147,7.0,23.0,94,0.00,,,0.20,Wunderground v.1.15,2013-01-10 01:33:00,
2013-01-09 15:39:00,69.9,68.1,29.96,SE,145,6.0,23.0,94,0.00,,,0.21,Wunderground v.1.15,2013-01-10 01:39:00,
2013-01-09 15:44:00,70.0,68.2,29.96,SSE,147,7.0,12.0,94,0.00,,,0.21,Wunderground v.1.15,2013-01-10 01:44:00,
2013-01-09 15:50:00,69.9,68.1,29.96,SE,142,6.0,6.0,94,0.00,,,0.21,Wunderground v.1.15,2013-01-10 01:50:00,
2013-01-09 15:55:00,69.8,68.0,29.96,SE,140,6.0,17.0,94,0.00,,,0.21,Wunderground v.1.15,2013-01-10 01:55:00,
2013-01-09 16:01:00,69.9,68.1,29.97,SE,146,5.0,17.0,94,0.00,,,0.21,Wunderground v.1.15,2013-01-10 02:01:00,
2013-01-09 16:07:00,70.2,68.4,29.97,SSE,150,5.0,17.0,94,0.00,,,0.21,Wunderground v.1.15,2013-01-10 02:07:00,
2013-01-09 16:13:00,70.3,68.2,29.97,SSE,167,3.0,14.0,93,0.00,,,0.21,Wunderground v.1.15,2013-01-10 02:13:00,
2013-01-09 16:19:00,70.4,68.3,29.97,SE,144,4.0,14.0,93,0.00,,,0.21,Wunderground v.1.15,2013-01-10 02:19:00,
2013-01-09 16:25:00,70.4,68.3,29.97,ESE,120,4.0,12.0,93,0.00,,,0.21,Wunderground v.1.15,2013-01-10 02:25:00,
2013-01-09 16:30:00,70.4,68.0,29.98,SE,130,5.0,12.0,92,0.00,,,0.21,Wunderground v.1.15,2013-01-10 02:30:00,
2013-01-09 16:36:00,70.2,67.8,29.98,SSE,163,7.0,13.0,92,0.00,,,0.21,Wunderground v.1.15,2013-01-10 02:36:00,
2013-01-09 16:42:00,70.2,67.8,29.98,South,188,6.0,13.0,92,0.00,,,0.21,Wunderground v.1.15,2013-01-10 02:42:00,
2013-01-09 16:48:00,70.3,67.9,29.98,South,183,6.0,18.0,92,0.00,,,0.21,Wunderground v.1.15,2013-01-10 02:48:00,
2013-01-09 16:53:00,70.4,67.6,29.97,ESE,115,6.0,18.0,91,0.00,,,0.21,Wunderground v.1.15,2013-01-10 02:53:00,
2013-01-09 16:59:00,70.3,67.9,29.97,SSE,162,6.0,18.0,92,0.00,,,0.21,Wunderground v.1.15,2013-01-10 02:59:00,
2013-01-09 17:04:00,70.1,67.7,29.98,SE,144,6.0,18.0,92,0.00,,,0.21,Wunderground v.1.15,2013-01-10 03:04:00,
2013-01-09 17:09:00,70.0,67.6,29.97,ESE,121,4.0,18.0,92,0.00,,,0.21,Wunderground v.1.15,2013-01-10 03:09:00,
2013-01-09 17:15:00,69.9,67.8,29.97,SE,136,3.0,15.0,93,0.00,,,0.21,Wunderground v.1.15,2013-01-10 03:15:00,
2013-01-09 17:21:00,70.0,67.9,29.98,SE,136,2.0,9.0,93,0.00,,,0.21,Wunderground v.1.15,2013-01-10 03:21:00,
2013-01-09 17:27:00,69.9,68.1,29.97,SE,129,3.0,9.0,94,0.00,,,0.21,Wunderground v.1.15,2013-01-10 03:27:00,
2013-01-09 17:32:00,69.7,67.9,29.97,SE,135,5.0,12.0,94,0.00,,,0.21,Wunderground v.1.15,2013-01-10 03:32:00,
2013-01-09 17:38:00,69.4,67.6,29.98,East,95,6.0,12.0,94,0.00,,,0.21,Wunderground v.1.15,2013-01-10 03:38:00,
2013-01-09 17:43:00,69.2,67.4,29.98,ESE,107,6.0,12.0,94,0.00,,,0.21,Wunderground v.1.15,2013-01-10 03:43:00,
2013-01-09 17:49:00,69.2,67.4,29.98,SE,135,5.0,14.0,94,0.00,,,0.21,Wunderground v.1.15,2013-01-10 03:49:00,
2013-01-09 17:55:00,69.2,67.4,29.98,SE,142,5.0,14.0,94,0.00,,,0.21,Wunderground v.1.15,2013-01-10 03:55:00,
2013-01-09 18:01:00,69.1,67.3,29.98,SE,138,5.0,14.0,94,0.00,,,0.21,Wunderground v.1.15,2013-01-10 04:01:00,
2013-01-09 18:07:00,69.0,67.2,29.99,SSE,148,5.0,14.0,94,0.00,,,0.21,Wunderground v.1.15,2013-01-10 04:07:00,
2013-01-09 18:12:00,68.9,67.1,29.99,SSE,168,5.0,11.0,94,0.00,,,0.21,Wunderground v.1.15,2013-01-10 04:12:00,
2013-01-09 18:18:00,68.7,66.9,29.99,SE,144,6.0,16.0,94,0.00,,,0.21,Wunderground v.1.15,2013-01-10 04:18:00,
2013-01-09 18:23:00,68.7,66.9,29.99,ESE,113,7.0,16.0,94,0.00,,,0.21,Wunderground v.1.15,2013-01-10 04:23:00,
2013-01-09 18:29:00,68.7,66.9,29.99,SSE,155,6.0,16.0,94,0.00,,,0.21,Wunderground v.1.15,2013-01-10 04:29:00,
2013-01-09 18:34:00,68.7,66.9,29.99,SSE,154,6.0,16.0,94,0.00,,,0.21,Wunderground v.1.15,2013-01-10 04:34:00,
2013-01-09 18:39:00,68.7,66.9,29.99,SE,146,7.0,16.0,94,0.00,,,0.21,Wunderground v.1.15,2013-01-10 04:39:00,
2013-01-09 18:45:00,68.8,67.0,29.99,SE,124,6.0,14.0,94,0.00,,,0.21,Wunderground v.1.15,2013-01-10 04:45:00,
2013-01-09 18:51:00,68.7,66.9,29.99,SE,144,7.0,17.0,94,0.00,,,0.21,Wunderground v.1.15,2013-01-10 04:51:00,
2013-01-09 18:56:00,68.7,66.9,29.99,SSE,151,8.0,17.0,94,0.00,,,0.21,Wunderground v.1.15,2013-01-10 04:56:00,
2013-01-09 19:00:00,68.7,66.6,30.00,SSE,151,8.0,8.0,93,0.00,,,0.21,Wunderground v.1.15,2013-01-10 05:00:00,
2013-01-09 19:01:00,68.8,66.7,30.00,SE,145,7.0,17.0,93,0.00,,,0.21,Wunderground v.1.15,2013-01-10 05:01:00,
2013-01-09 19:03:00,68.8,66.7,30.00,SE,142,8.0,18.0,93,0.00,,,0.21,Wunderground v.1.15,2013-01-10 05:03:00,
2013-01-09 19:05:00,68.8,66.7,30.00,South,169,7.0,18.0,93,0.00,,,0.21,Wunderground v.1.15,2013-01-10 05:05:00,
2013-01-09 19:10:00,68.8,66.7,30.00,SSE,167,6.0,6.0,93,0.00,,,0.21,Wunderground v.1.15,2013-01-10 05:10:00,
2013-01-09 19:16:00,68.8,66.7,30.00,SE,146,6.0,18.0,93,0.00,,,0.21,Wunderground v.1.15,2013-01-10 05:16:00,
2013-01-09 19:22:00,68.8,66.7,30.00,SSE,148,8.0,16.0,93,0.00,,,0.21,Wunderground v.1.15,2013-01-10 05:22:00,
2013-01-09 19:27:00,68.8,66.7,30.00,ESE,116,7.0,16.0,93,0.00,,,0.21,Wunderground v.1.15,2013-01-10 05:27:00,
2013-01-09 19:33:00,68.8,66.7,30.00,SE,138,5.0,19.0,93,0.00,,,0.21,Wunderground v.1.15,2013-01-10 05:33:00,
2013-01-09 19:39:00,68.7,66.6,30.00,SSE,147,5.0,19.0,93,0.00,,,0.21,Wunderground v.1.15,2013-01-10 05:39:00,
2013-01-09 19:44:00,68.6,66.5,30.01,SSE,147,6.0,19.0,93,0.00,,,0.21,Wunderground v.1.15,2013-01-10 05:44:00,
2013-01-09 19:50:00,68.7,66.6,30.01,SSE,153,6.0,6.0,93,0.00,,,0.21,Wunderground v.1.15,2013-01-10 05:50:00,
2013-01-09 19:56:00,68.7,66.6,30.01,SE,139,5.0,12.0,93,0.00,,,0.21,Wunderground v.1.15,2013-01-10 05:56:00,
2013-01-09 20:01:00,68.8,67.0,30.01,SE,138,6.0,15.0,94,0.00,,,0.21,Wunderground v.1.15,2013-01-10 06:01:00,
2013-01-09 20:07:00,68.8,67.0,30.01,SE,145,6.0,15.0,94,0.00,,,0.21,Wunderground v.1.15,2013-01-10 06:07:00,
2013-01-09 20:13:00,68.8,67.0,30.01,SSE,150,5.0,15.0,94,0.00,,,0.21,Wunderground v.1.15,2013-01-10 06:13:00,
2013-01-09 20:19:00,68.8,67.0,30.01,SE,139,6.0,15.0,94,0.00,,,0.22,Wunderground v.1.15,2013-01-10 06:19:00,
2013-01-09 20:24:00,68.8,67.0,30.02,SSE,150,5.0,14.0,94,0.00,,,0.22,Wunderground v.1.15,2013-01-10 06:24:00,
2013-01-09 20:30:00,68.6,66.8,30.02,SE,146,6.0,14.0,94,0.00,,,0.22,Wunderground v.1.15,2013-01-10 06:30:00,
2013-01-09 20:36:00,68.4,66.6,30.02,SSE,151,7.0,17.0,94,0.00,,,0.22,Wunderground v.1.15,2013-01-10 06:36:00,
2013-01-09 20:41:00,68.5,66.7,30.02,SSE,155,7.0,17.0,94,0.00,,,0.22,Wunderground v.1.15,2013-01-10 06:41:00,
2013-01-09 20:47:00,68.5,66.7,30.02,SE,131,7.0,17.0,94,0.00,,,0.22,Wunderground v.1.15,2013-01-10 06:47:00,
2013-01-09 20:53:00,68.5,66.7,30.02,SSE,149,7.0,17.0,94,0.00,,,0.22,Wunderground v.1.15,2013-01-10 06:53:00,
2013-01-09 20:58:00,68.5,66.7,30.02,ESE,123,6.0,17.0,94,0.00,,,0.22,Wunderground v.1.15,2013-01-10 06:58:00,
2013-01-09 21:03:00,68.5,66.7,30.03,SE,126,6.0,17.0,94,0.00,,,0.22,Wunderground v.1.15,2013-01-10 07:03:00,
2013-01-09 21:09:00,68.6,66.8,30.03,South,169,6.0,17.0,94,0.00,,,0.22,Wunderground v.1.15,2013-01-10 07:09:00,
2013-01-09 21:14:00,68.6,66.8,30.03,SE,126,5.0,15.0,94,0.00,,,0.23,Wunderground v.1.15,2013-01-10 07:14:00,
2013-01-09 21:20:00,68.5,66.7,30.03,SE,136,8.0,18.0,94,0.00,,,0.23,Wunderground v.1.15,2013-01-10 07:20:00,
2013-01-09 21:25:00,68.4,66.6,30.03,SE,124,9.0,18.0,94,0.00,,,0.23,Wunderground v.1.15,2013-01-10 07:25:00,
2013-01-09 21:31:00,68.3,66.5,30.03,ENE,65,7.0,18.0,94,0.00,,,0.23,Wunderground v.1.15,2013-01-10 07:31:00,
2013-01-09 21:37:00,68.2,66.4,30.03,South,182,5.0,21.0,94,0.00,,,0.23,Wunderground v.1.15,2013-01-10 07:37:00,
2013-01-09 21:43:00,68.2,66.4,30.03,SE,141,4.0,21.0,94,0.00,,,0.23,Wunderground v.1.15,2013-01-10 07:43:00,
2013-01-09 21:48:00,68.2,66.4,30.03,SE,127,6.0,21.0,94,0.00,,,0.24,Wunderground v.1.15,2013-01-10 07:48:00,
2013-01-09 21:54:00,68.1,66.3,30.03,SSE,149,7.0,15.0,94,0.00,,,0.24,Wunderground v.1.15,2013-01-10 07:54:00,
2013-01-09 21:59:00,68.1,66.6,30.03,SSE,157,7.0,15.0,95,0.00,,,0.24,Wunderground v.1.15,2013-01-10 07:59:00,
2013-01-09 22:04:00,68.1,66.6,30.03,SE,142,6.0,15.0,95,0.00,,,0.24,Wunderground v.1.15,2013-01-10 08:04:00,
2013-01-09 22:10:00,68.1,66.6,30.04,South,180,7.0,7.0,95,0.14,,,0.27,Wunderground v.1.15,2013-01-10 08:10:00,
2013-01-09 22:15:00,68.0,66.5,30.03,SSE,157,8.0,15.0,95,0.11,,,0.27,Wunderground v.1.15,2013-01-10 08:15:00,
2013-01-09 22:21:00,68.1,66.6,30.03,ESE,123,7.0,21.0,95,0.05,,,0.27,Wunderground v.1.15,2013-01-10 08:21:00,
2013-01-09 22:27:00,68.1,66.6,30.03,South,172,6.0,21.0,95,0.00,,,0.27,Wunderground v.1.15,2013-01-10 08:27:00,
2013-01-09 22:33:00,68.1,66.6,30.03,SSE,147,6.0,21.0,95,0.00,,,0.27,Wunderground v.1.15,2013-01-10 08:33:00,
2013-01-09 22:39:00,68.1,66.6,30.03,SE,144,6.0,21.0,95,0.00,,,0.27,Wunderground v.1.15,2013-01-10 08:39:00,
2013-01-09 22:45:00,68.0,66.5,30.03,South,186,7.0,15.0,95,0.00,,,0.28,Wunderground v.1.15,2013-01-10 08:45:00,
2013-01-09 22:51:00,67.9,66.4,30.02,South,173,8.0,9.0,95,0.00,,,0.28,Wunderground v.1.15,2013-01-10 08:51:00,
2013-01-09 22:56:00,67.8,66.3,30.02,SE,140,7.0,21.0,95,0.00,,,0.28,Wunderground v.1.15,2013-01-10 08:56:00,
2013-01-09 23:02:00,67.9,66.4,30.02,SE,140,8.0,21.0,95,0.00,,,0.28,Wunderground v.1.15,2013-01-10 09:02:00,
2013-01-09 23:07:00,68.0,66.5,30.02,SSE,154,9.0,21.0,95,0.00,,,0.28,Wunderground v.1.15,2013-01-10 09:07:00,
2013-01-09 23:13:00,68.0,66.5,30.02,SE,134,9.0,18.0,95,0.00,,,0.29,Wunderground v.1.15,2013-01-10 09:13:00,
2013-01-09 23:18:00,68.0,66.5,30.02,SE,143,8.0,20.0,95,0.00,,,0.29,Wunderground v.1.15,2013-01-10 09:18:00,
2013-01-09 23:24:00,68.0,66.5,30.01,SSE,155,6.0,20.0,95,0.00,,,0.29,Wunderground v.1.15,2013-01-10 09:24:00,
2013-01-09 23:29:00,67.9,66.4,30.02,SSE,157,6.0,20.0,95,0.00,,,0.29,Wunderground v.1.15,2013-01-10 09:29:00,
2013-01-09 23:35:00,68.0,66.5,30.02,SSE,157,6.0,18.0,95,0.00,,,0.29,Wunderground v.1.15,2013-01-10 09:35:00,
2013-01-09 23:41:00,68.0,66.5,30.01,SE,140,7.0,18.0,95,0.00,,,0.29,Wunderground v.1.15,2013-01-10 09:41:00,
2013-01-09 23:47:00,67.9,66.1,30.01,South,182,5.0,24.0,94,0.00,,,0.29,Wunderground v.1.15,2013-01-10 09:47:00,
2013-01-09 23:53:00,67.9,66.1,30.01,SE,142,5.0,24.0,94,0.00,,,0.29,Wunderground v.1.15,2013-01-10 09:53:00,
2013-01-09 23:58:00,67.9,66.1,30.01,SE,144,6.0,24.0,94,0.00,,,0.29,Wunderground v.1.15,2013-01-10 09:58:00,